Aviation Digital Data Service (ADDS)

Output produced by TAFs form (0855 UTC 27 June 2017)
found at http://www.aviationweather.gov/adds/tafs/
 
KPOU 270531Z 2706/2806 36007KT P6SM BKN080 
     FM270900 36004KT P6SM VCSH BKN070 
     FM271300 VRB03KT P6SM BKN080 
     FM271600 23006KT P6SM BKN080 
     PROB30 2717/2723 3SM -TSRA OVC030CB 
     FM280000 00000KT P6SM SCT200